createdAt,value
2018-05-11T07:27:00.398Z,45.63
2018-05-11T07:29:28.096Z,40.40
2018-05-11T08:35:52.276Z,36.20
2018-05-11T08:38:19.801Z,27.07
2018-05-11T08:40:47.392Z,37.13
2018-05-11T08:43:14.968Z,32.27
2018-05-11T08:45:42.577Z,38.93
2018-05-11T08:48:10.128Z,35.47
2018-05-11T08:50:39.202Z,43.60
2018-05-11T08:53:06.773Z,37.03
2018-05-11T08:55:34.477Z,37.00
2018-05-11T08:58:02.041Z,38.73
2018-05-11T09:00:29.583Z,28.43
2018-05-11T09:02:58.079Z,29.73
2018-05-11T09:05:25.687Z,38.37
2018-05-11T09:07:53.231Z,36.17
2018-05-11T09:10:20.783Z,30.77
2018-05-11T09:12:48.367Z,43.37
2018-05-11T09:15:15.937Z,26.30
2018-05-11T09:17:45.003Z,23.30
2018-05-11T09:20:12.572Z,26.80
2018-05-11T09:22:40.151Z,26.53
2018-05-11T09:25:07.746Z,23.93
2018-05-11T09:27:35.328Z,22.20
2018-05-11T09:30:02.918Z,33.20
2018-05-11T09:32:30.531Z,19.67
2018-05-11T09:34:58.123Z,18.80
2018-05-11T09:37:25.656Z,18.20
2018-05-11T09:39:53.334Z,25.00
2018-05-11T09:42:20.807Z,21.33
2018-05-11T09:44:48.381Z,21.00
2018-05-11T09:47:15.968Z,26.83
2018-05-11T09:49:44.278Z,35.93
2018-05-11T09:52:11.899Z,19.90
2018-05-11T09:54:40.235Z,23.90
2018-05-11T09:57:07.805Z,22.70
2018-05-11T09:59:35.358Z,22.57
2018-05-11T10:02:03.083Z,21.37
2018-05-11T10:04:30.857Z,32.30
2018-05-11T10:06:58.435Z,21.00
2018-05-11T10:09:25.963Z,22.43
2018-05-11T10:11:53.678Z,18.83
2018-05-11T10:14:21.244Z,20.70
2018-05-11T10:16:48.806Z,23.20
2018-05-11T10:19:16.376Z,23.90
2018-05-11T10:21:43.911Z,15.40
2018-05-11T10:24:11.509Z,16.33
2018-05-11T10:26:39.127Z,24.40
2018-05-11T10:29:06.679Z,19.03
2018-05-11T10:31:34.276Z,19.20
2018-05-11T10:34:02.732Z,14.80
2018-05-11T10:36:30.455Z,15.10
2018-05-11T10:38:57.999Z,21.30
2018-05-11T10:41:25.587Z,23.10
2018-05-11T10:43:53.159Z,10.63
2018-05-11T10:46:20.799Z,14.03
2018-05-11T10:48:48.552Z,22.77
2018-05-11T10:51:16.875Z,16.77
2018-05-11T10:53:44.462Z,17.13
2018-05-11T10:56:12.796Z,18.80
2018-05-11T10:58:40.355Z,9.07
2018-05-11T11:01:07.904Z,16.47
2018-05-11T11:03:35.475Z,22.40
2018-05-11T11:06:03.024Z,18.43
2018-05-11T11:08:30.658Z,15.80
2018-05-11T11:10:58.201Z,15.77
2018-05-11T11:13:25.773Z,16.60
2018-05-11T11:15:53.329Z,14.57
2018-05-11T11:18:20.899Z,18.50
2018-05-11T11:20:48.449Z,19.60
2018-05-11T11:23:16.083Z,18.03
2018-05-11T11:25:44.489Z,19.70
2018-05-11T11:28:12.036Z,22.60
2018-05-11T11:30:39.588Z,23.33
2018-05-11T11:33:07.139Z,16.70
2018-05-11T11:35:35.481Z,16.53
2018-05-11T11:38:03.123Z,14.70
2018-05-11T11:40:30.731Z,18.57
2018-05-11T11:42:59.238Z,34.37
2018-05-11T11:45:26.903Z,16.23
2018-05-11T11:47:54.492Z,11.47
2018-05-11T11:50:22.036Z,13.20
2018-05-11T11:52:49.619Z,19.30
2018-05-11T11:55:17.376Z,16.90
2018-05-11T11:57:44.951Z,22.43
2018-05-11T12:00:12.665Z,9.37
2018-05-11T12:02:40.225Z,36.27
2018-05-11T12:05:07.813Z,14.50
2018-05-11T12:07:35.411Z,14.53
2018-05-11T12:10:03.775Z,13.13
2018-05-11T12:12:31.317Z,12.70
2018-05-11T12:14:58.906Z,16.73
2018-05-11T12:17:27.223Z,10.60
2018-05-11T12:19:55.061Z,12.70
2018-05-11T12:22:22.758Z,17.53
2018-05-11T12:24:50.348Z,29.37
2018-05-11T12:27:17.893Z,18.42
2018-05-11T12:29:45.427Z,14.30
2018-05-11T12:32:13.031Z,13.60
2018-05-11T12:34:40.646Z,10.03
2018-05-11T12:37:08.215Z,10.17
2018-05-11T12:39:35.857Z,12.60
2018-05-11T12:42:03.430Z,17.90
2018-05-11T12:44:30.971Z,9.03
2018-05-11T12:46:58.633Z,19.40
2018-05-11T12:49:26.193Z,14.83
2018-05-11T12:51:53.779Z,17.63
2018-05-11T12:54:21.420Z,11.27
2018-05-11T12:56:49.072Z,9.90
2018-05-11T12:59:16.627Z,11.87
2018-05-11T13:01:44.208Z,11.30
2018-05-11T13:04:11.772Z,13.00
2018-05-11T13:06:39.367Z,11.80
2018-05-11T13:09:07.753Z,9.83
2018-05-11T13:11:36.360Z,23.33
2018-05-11T13:14:03.956Z,12.97
2018-05-11T13:16:31.659Z,7.90
2018-05-11T13:19:00.020Z,16.47
2018-05-11T13:21:27.589Z,8.03
2018-05-11T13:23:55.903Z,12.87
2018-05-11T13:26:23.463Z,7.93
2018-05-11T13:28:51.242Z,10.87
2018-05-11T13:31:18.801Z,10.40
2018-05-11T13:33:46.445Z,22.50
2018-05-11T13:36:14.116Z,8.67
2018-05-11T13:38:41.716Z,8.73
2018-05-11T13:41:09.300Z,15.40
2018-05-11T13:43:37.732Z,17.90
2018-05-11T13:46:05.307Z,12.27
2018-05-11T13:48:32.994Z,12.30
2018-05-11T13:51:01.355Z,11.87
2018-05-11T13:53:28.905Z,4.90
2018-05-11T13:55:56.566Z,11.50
2018-05-11T13:58:24.169Z,10.40
2018-05-11T14:00:51.753Z,16.97
2018-05-11T14:03:19.321Z,8.97
2018-05-11T14:05:46.869Z,12.37
2018-05-11T14:08:15.001Z,11.23
2018-05-11T14:10:43.491Z,20.00
2018-05-11T14:13:11.111Z,6.40
2018-05-11T14:15:38.687Z,7.83
2018-05-11T14:18:06.244Z,4.70
2018-05-11T14:20:33.828Z,13.23
2018-05-11T14:23:01.384Z,12.10
2018-05-11T14:25:29.034Z,11.23
2018-05-11T14:27:57.549Z,9.93
2018-05-11T14:30:25.117Z,7.90
2018-05-11T14:32:52.795Z,5.27
2018-05-11T14:35:20.356Z,7.50
2018-05-11T14:37:48.128Z,8.53
2018-05-11T14:40:15.726Z,9.13
2018-05-11T14:42:44.027Z,7.17
2018-05-11T14:45:11.804Z,9.70
2018-05-11T14:47:39.383Z,5.50
2018-05-11T14:50:06.959Z,7.03
2018-05-11T14:52:34.576Z,6.23
2018-05-11T14:55:02.140Z,7.00
2018-05-11T14:57:29.782Z,11.33
2018-05-11T14:59:57.444Z,4.63
2018-05-11T15:02:25.011Z,8.67
2018-05-11T15:04:52.538Z,6.23
2018-05-11T15:07:20.969Z,5.17
2018-05-11T15:09:48.543Z,13.60
2018-05-11T15:12:16.137Z,6.60
2018-05-11T15:14:44.509Z,11.03
2018-05-11T15:17:12.870Z,10.67
2018-05-11T15:19:40.412Z,11.10
2018-05-11T15:22:08.059Z,6.60
2018-05-11T15:24:35.598Z,6.30
2018-05-11T15:27:03.272Z,9.97
2018-05-11T15:29:30.931Z,9.90
2018-05-11T15:31:58.515Z,6.63
2018-05-11T15:34:26.174Z,9.03
2018-05-11T15:36:53.731Z,9.07
2018-05-11T15:39:21.504Z,9.60
2018-05-11T15:41:49.172Z,9.60
2018-05-11T15:44:16.745Z,7.60
2018-05-11T15:46:45.151Z,6.77
2018-05-11T15:49:12.691Z,7.00
2018-05-11T15:51:41.135Z,6.00
2018-05-11T15:54:08.687Z,11.33
2018-05-11T15:56:36.262Z,5.83
2018-05-11T15:59:04.000Z,9.13
2018-05-11T16:01:31.518Z,5.20
2018-05-11T16:03:59.226Z,11.70
2018-05-11T16:06:26.874Z,4.37
2018-05-11T16:08:54.451Z,4.73
2018-05-11T16:11:22.177Z,6.60
2018-05-11T16:13:49.915Z,6.60
2018-05-11T16:16:18.307Z,4.73
2018-05-11T16:18:45.909Z,12.67
2018-05-11T16:21:13.735Z,5.80
2018-05-11T16:23:41.309Z,6.30
2018-05-11T16:26:08.883Z,6.53
2018-05-11T16:28:36.599Z,7.13
2018-05-11T16:31:04.902Z,8.90
2018-05-11T16:33:33.308Z,8.40
2018-05-11T16:36:00.896Z,12.60
2018-05-11T16:38:28.574Z,3.43
2018-05-11T16:40:56.895Z,3.50
2018-05-11T16:43:24.488Z,8.45
2018-05-11T16:45:52.083Z,5.70
2018-05-11T16:48:19.763Z,6.37
2018-05-11T16:50:47.310Z,10.13
2018-05-11T16:53:14.869Z,4.97
2018-05-11T16:55:42.462Z,9.80
2018-05-11T16:58:10.044Z,6.03
2018-05-11T17:00:37.654Z,5.70
2018-05-11T17:03:05.203Z,5.60
2018-05-11T17:05:33.284Z,9.37
2018-05-11T17:08:00.844Z,6.57
2018-05-11T17:10:28.399Z,9.90
2018-05-11T17:12:55.944Z,9.73
2018-05-11T17:15:23.503Z,13.00
2018-05-11T17:17:51.059Z,16.97
2018-05-11T17:20:18.691Z,37.70
2018-05-11T17:22:46.327Z,10.20
2018-05-11T17:25:13.793Z,13.73
2018-05-11T17:27:42.332Z,12.57
2018-05-11T17:30:09.998Z,9.67
2018-05-11T17:32:37.571Z,6.87
2018-05-11T17:35:05.132Z,8.70
2018-05-11T17:37:32.703Z,12.95
2018-05-11T17:40:01.236Z,10.03
2018-05-11T17:42:28.872Z,11.83
2018-05-11T17:44:57.240Z,6.20
2018-05-11T17:47:24.755Z,11.33
2018-05-11T17:49:52.399Z,10.57
2018-05-11T17:52:19.975Z,8.10
2018-05-11T17:54:47.547Z,7.17
2018-05-11T17:57:15.094Z,16.13
2018-05-11T17:59:42.697Z,7.80
2018-05-11T18:02:10.264Z,8.40
2018-05-11T18:04:37.828Z,11.20
2018-05-11T18:07:06.235Z,13.63
2018-05-11T18:09:33.808Z,10.73
2018-05-11T18:12:01.388Z,11.43
2018-05-11T18:14:28.972Z,14.10
2018-05-11T18:16:56.536Z,10.00
2018-05-11T18:19:24.089Z,10.63
2018-05-11T18:21:51.662Z,11.90
2018-05-11T18:24:19.992Z,8.07
2018-05-11T18:26:47.573Z,9.67
2018-05-11T18:29:15.165Z,14.77
2018-05-11T18:31:43.571Z,9.77
2018-05-11T18:34:11.152Z,11.90
2018-05-11T18:36:38.714Z,11.07
2018-05-11T18:39:06.303Z,9.43
2018-05-11T18:41:33.931Z,7.43
2018-05-11T18:44:01.564Z,9.20
2018-05-11T18:46:29.215Z,11.97
2018-05-11T18:48:56.886Z,12.70
2018-05-11T18:51:24.477Z,11.50
2018-05-11T18:53:52.418Z,11.07
2018-05-11T18:56:19.653Z,10.43
2018-05-11T18:58:47.238Z,12.93
2018-05-11T19:01:14.810Z,11.03
2018-05-11T19:03:42.392Z,11.23
2018-05-11T19:06:09.995Z,11.67
2018-05-11T19:08:37.555Z,9.40
2018-05-11T19:11:05.730Z,7.60
2018-05-11T19:13:33.289Z,18.97
2018-05-11T19:16:00.952Z,9.23
2018-05-11T19:18:28.510Z,10.27
2018-05-11T19:20:56.100Z,13.10
2018-05-11T19:23:23.710Z,10.10
2018-05-11T19:25:52.073Z,9.73
2018-05-11T19:28:20.427Z,13.80
2018-05-11T19:30:48.005Z,10.47
2018-05-11T19:33:16.523Z,13.33
2018-05-11T19:35:44.089Z,10.50
2018-05-11T19:38:11.668Z,11.20
2018-05-11T19:40:39.246Z,12.17
2018-05-11T19:43:06.848Z,11.53
2018-05-11T19:45:34.392Z,12.53
2018-05-11T19:48:02.800Z,10.67
2018-05-11T19:50:30.408Z,11.97
2018-05-11T19:52:58.821Z,8.87
2018-05-11T19:55:27.149Z,12.50
2018-05-11T19:57:54.787Z,18.87
2018-05-11T20:00:23.068Z,11.60
2018-05-11T20:02:50.649Z,13.33
2018-05-11T20:05:18.274Z,20.70
2018-05-11T20:07:45.832Z,11.80
2018-05-11T20:10:13.418Z,9.70
2018-05-11T20:12:40.971Z,11.70
2018-05-11T20:15:08.543Z,17.10
2018-05-11T20:17:36.122Z,11.23
2018-05-11T20:20:03.700Z,15.30
2018-05-11T20:22:31.282Z,15.53
2018-05-11T20:24:58.989Z,17.80
2018-05-11T20:27:26.535Z,16.13
2018-05-11T20:29:54.101Z,15.53
2018-05-11T20:32:21.786Z,17.37
2018-05-11T20:34:49.284Z,13.30
2018-05-11T20:37:16.880Z,12.43
2018-05-11T20:39:44.441Z,13.80
2018-05-11T20:55:48.867Z,12.13
2018-05-11T20:58:16.453Z,14.97
2018-05-11T21:00:44.003Z,18.63
2018-05-11T21:03:11.592Z,14.03
2018-05-11T21:05:39.936Z,22.03
2018-05-11T21:08:07.493Z,11.33
2018-05-11T21:10:35.195Z,10.23
2018-05-11T21:13:02.772Z,20.63
2018-05-11T21:15:30.453Z,11.17
2018-05-11T21:17:58.013Z,12.13
2018-05-11T21:20:25.571Z,12.07
2018-05-11T21:22:53.151Z,12.67
2018-05-11T21:25:20.726Z,16.83
2018-05-11T21:27:48.412Z,17.37
2018-05-11T21:30:16.750Z,12.63
2018-05-11T21:32:44.319Z,15.43
2018-05-11T21:35:11.889Z,12.40
2018-05-11T21:37:39.459Z,11.50
2018-05-11T21:40:07.788Z,13.00
2018-05-11T21:42:35.368Z,15.83
2018-05-11T21:45:02.942Z,11.57
2018-05-11T21:47:31.278Z,12.53
2018-05-11T21:49:58.969Z,16.47
2018-05-11T21:52:27.542Z,21.60
2018-05-11T21:54:55.173Z,15.33
2018-05-11T21:57:22.971Z,13.27
2018-05-11T21:59:50.507Z,13.67
2018-05-11T22:02:18.068Z,10.70
2018-05-11T22:04:45.806Z,24.00
2018-05-11T22:07:13.340Z,21.70
2018-05-11T22:09:41.852Z,12.10
2018-05-11T22:12:09.428Z,16.13
2018-05-11T22:14:36.979Z,12.00
2018-05-11T22:17:04.628Z,14.60
2018-05-11T22:19:32.291Z,12.10
2018-05-11T22:21:59.959Z,12.87
2018-05-11T22:24:27.509Z,9.40
2018-05-11T22:26:55.096Z,16.33
2018-05-11T22:29:22.655Z,14.20
2018-05-11T22:31:50.247Z,13.33
2018-05-11T22:34:18.565Z,19.20
2018-05-11T22:36:46.162Z,13.47
2018-05-11T22:39:13.761Z,16.60
2018-05-11T22:41:41.409Z,16.13
2018-05-11T22:44:09.784Z,11.00
2018-05-11T22:46:38.223Z,13.27
2018-05-11T22:49:05.780Z,15.63
2018-05-11T22:51:33.391Z,13.10
2018-05-11T22:54:00.955Z,10.60
2018-05-11T22:56:28.622Z,15.07
2018-05-11T22:58:56.167Z,15.63
2018-05-11T23:01:23.722Z,9.80
2018-05-11T23:03:52.068Z,10.20
2018-05-11T23:06:19.691Z,12.23
2018-05-11T23:08:47.379Z,10.77
2018-05-11T23:11:14.914Z,11.27
2018-05-11T23:13:42.507Z,11.13
2018-05-11T23:16:10.815Z,13.37
2018-05-11T23:18:39.115Z,12.93
2018-05-11T23:21:06.890Z,11.80
2018-05-11T23:23:34.540Z,10.50
2018-05-11T23:26:02.084Z,14.23
2018-05-11T23:28:29.742Z,12.63
2018-05-11T23:30:58.147Z,10.00
2018-05-11T23:33:25.692Z,14.33
2018-05-11T23:35:53.299Z,11.90
2018-05-11T23:38:20.844Z,14.13
2018-05-11T23:40:48.514Z,10.33
2018-05-11T23:43:16.060Z,11.07
2018-05-11T23:45:43.664Z,21.70
2018-05-11T23:48:12.152Z,12.10
2018-05-11T23:50:39.826Z,13.20
2018-05-11T23:53:07.381Z,9.90
2018-05-11T23:55:34.961Z,14.30
2018-05-11T23:58:02.519Z,14.03
